Time;durP1;ratioP1;P1;durP2;ratioP2;P2;SDS_P1;SDS_P2;PMS_P1;PMS_P2;Temp;Humidity;BMP_temperature;BMP_pressure;BME280_temperature;BME280_humidity;BME280_pressure;Samples;Min_cycle;Max_cycle;Signal;HPM_P1;HPM_P2
2024/01/31 00:00:13;;;;;;;23.10;16.70;;;;;;;2.94;62.71;101633.27;106673;1280;24222;-84
2024/01/31 00:02:41;;;;;;;25.30;16.70;;;;;;;2.90;62.76;101632.79;106919;1280;22556;-84
2024/01/31 00:05:13;;;;;;;23.50;17.00;;;;;;;2.87;62.96;101632.11;106954;1280;22494;-87
2024/01/31 00:07:46;;;;;;;27.40;17.20;;;;;;;2.83;63.06;101632.48;106673;1280;23182;-88
2024/01/31 00:10:14;;;;;;;20.00;15.30;;;;;;;2.79;63.12;101630.21;106190;1285;24261;-85
2024/01/31 00:12:42;;;;;;;22.30;15.70;;;;;;;2.79;63.24;101631.08;106461;1279;23765;-89
2024/01/31 00:15:13;;;;;;;23.10;16.50;;;;;;;2.80;63.31;101628.52;106763;1279;22604;-85
2024/01/31 00:17:40;;;;;;;23.50;16.80;;;;;;;2.77;63.29;101629.09;107468;1284;26025;-85
2024/01/31 00:20:09;;;;;;;22.70;16.50;;;;;;;2.76;63.40;101628.51;107489;1271;23319;-86
2024/01/31 00:22:38;;;;;;;25.20;16.70;;;;;;;2.77;63.55;101631.16;106650;1284;22536;-86
2024/01/31 00:25:08;;;;;;;23.80;16.00;;;;;;;2.77;63.53;101629.45;106463;1284;22631;-87
2024/01/31 00:27:36;;;;;;;23.20;16.50;;;;;;;2.75;63.54;101627.45;106142;1290;25420;-86
2024/01/31 00:30:10;;;;;;;22.90;15.40;;;;;;;2.75;63.56;101627.61;105977;1290;22887;-86
2024/01/31 00:32:40;;;;;;;24.50;16.10;;;;;;;2.75;63.67;101625.71;105756;1289;22557;-85
2024/01/31 00:35:11;;;;;;;19.40;15.70;;;;;;;2.76;63.73;101628.53;105376;1281;22671;-86
2024/01/31 00:37:41;;;;;;;24.40;15.90;;;;;;;2.78;63.69;101630.88;105874;1292;22710;-87
2024/01/31 00:40:13;;;;;;;23.10;15.40;;;;;;;2.77;63.81;101632.04;105383;1297;25422;-87
2024/01/31 00:42:44;;;;;;;20.10;14.70;;;;;;;2.76;63.90;101629.55;105324;1297;25458;-87
2024/01/31 00:45:13;;;;;;;21.30;15.30;;;;;;;2.74;63.89;101621.13;106115;1297;22556;-87
2024/01/31 00:47:44;;;;;;;22.90;15.80;;;;;;;2.75;63.93;101617.86;106684;1297;23192;-86
2024/01/31 00:50:15;;;;;;;21.40;16.20;;;;;;;2.75;63.91;101614.71;106957;1302;24206;-89
2024/01/31 00:52:43;;;;;;;20.50;14.90;;;;;;;2.75;63.95;101612.32;108545;1292;22239;-88
2024/01/31 00:55:13;;;;;;;20.60;15.40;;;;;;;2.76;64.08;101606.77;108483;1294;23243;-89
2024/01/31 00:57:41;;;;;;;20.90;14.70;;;;;;;2.78;64.09;101606.52;108389;1285;24371;-88
2024/01/31 01:00:14;;;;;;;23.90;16.10;;;;;;;2.80;64.10;101606.60;109402;1284;23076;-88
2024/01/31 01:02:45;;;;;;;22.70;15.10;;;;;;;2.80;64.15;101604.16;108323;1285;25402;-89
2024/01/31 01:05:12;;;;;;;19.20;14.30;;;;;;;2.78;64.06;101601.13;107029;1288;24184;-89
2024/01/31 01:07:45;;;;;;;20.20;15.50;;;;;;;2.75;64.23;101598.56;106967;1286;22666;-88
2024/01/31 01:10:15;;;;;;;21.50;15.00;;;;;;;2.76;64.31;101596.86;107388;1285;23941;-89
2024/01/31 01:12:44;;;;;;;22.50;16.10;;;;;;;2.77;64.33;101598.45;108150;1274;22551;-89
2024/01/31 01:15:12;;;;;;;22.50;15.90;;;;;;;2.74;64.32;101595.37;108942;1281;22501;-88
2024/01/31 01:17:45;;;;;;;24.50;15.70;;;;;;;2.68;64.41;101597.40;108597;1281;22548;-88
2024/01/31 01:20:15;;;;;;;21.10;14.10;;;;;;;2.64;64.53;101596.55;108986;1281;22574;-85
2024/01/31 01:22:42;;;;;;;21.00;14.60;;;;;;;2.65;64.68;101597.45;109432;1275;22580;-85
2024/01/31 01:25:12;;;;;;;19.20;13.20;;;;;;;2.65;64.69;101596.05;109727;1259;22493;-85
2024/01/31 01:27:45;;;;;;;19.90;15.20;;;;;;;2.68;64.65;101588.18;107666;1275;22504;-89
2024/01/31 01:30:14;;;;;;;20.60;14.20;;;;;;;2.70;64.69;101586.70;107507;1275;25643;-87
2024/01/31 01:32:42;;;;;;;20.80;14.60;;;;;;;2.72;64.79;101589.23;107607;1275;22527;-88
2024/01/31 01:35:13;;;;;;;23.20;15.00;;;;;;;2.75;64.90;101585.68;107650;1259;22551;-87
2024/01/31 01:37:42;;;;;;;18.90;13.70;;;;;;;2.78;64.85;101584.74;107918;1269;24066;-86
2024/01/31 01:40:12;;;;;;;22.10;15.00;;;;;;;2.76;64.84;101583.48;107840;1280;23305;-87
2024/01/31 01:42:40;;;;;;;19.30;14.90;;;;;;;2.72;64.82;101582.10;108102;1280;22555;-85
2024/01/31 01:45:12;;;;;;;22.90;15.90;;;;;;;2.73;64.96;101582.13;107809;1280;23894;-85
2024/01/31 01:47:48;;;;;;;21.00;14.80;;;;;;;2.74;65.04;101575.71;106898;1280;22530;-88
2024/01/31 01:50:43;;;;;;;21.00;14.60;;;;;;;2.72;65.03;101578.27;107809;1280;22662;-86
2024/01/31 01:53:12;;;;;;;20.80;14.40;;;;;;;2.74;65.08;101575.20;108232;1279;286991;-87
2024/01/31 01:55:46;;;;;;;21.30;16.30;;;;;;;2.71;65.15;101575.80;107488;1279;22728;-87
2024/01/31 01:58:17;;;;;;;19.60;14.00;;;;;;;2.71;65.19;101573.20;107361;1274;23899;-87
2024/01/31 02:00:46;;;;;;;19.50;14.80;;;;;;;2.68;65.13;101570.10;108059;1273;22524;-86
2024/01/31 02:03:18;;;;;;;19.00;14.20;;;;;;;2.67;65.30;101571.43;108284;1275;22540;-88
2024/01/31 02:05:46;;;;;;;16.20;12.80;;;;;;;2.66;65.36;101572.08;108484;1275;22928;-87
2024/01/31 02:08:16;;;;;;;21.20;14.00;;;;;;;2.64;65.32;101575.16;108240;1275;22597;-87
2024/01/31 02:10:44;;;;;;;19.20;13.30;;;;;;;2.66;65.52;101570.89;108504;1271;22733;-86
2024/01/31 02:13:11;;;;;;;18.80;12.80;;;;;;;2.66;65.50;101566.36;108881;1280;24256;-87
2024/01/31 02:15:38;;;;;;;17.60;13.50;;;;;;;2.66;65.52;101568.45;108943;1280;22553;-87
2024/01/31 02:18:09;;;;;;;19.50;14.70;;;;;;;2.65;65.54;101568.07;109031;1287;22646;-87
2024/01/31 02:20:38;;;;;;;21.40;14.20;;;;;;;2.63;65.60;101569.52;109348;1285;22570;-87
2024/01/31 02:23:05;;;;;;;18.90;14.30;;;;;;;2.60;65.63;101570.80;107591;1287;22797;-88
2024/01/31 02:25:33;;;;;;;20.10;15.10;;;;;;;2.59;65.86;101572.68;105793;1292;22545;-90
2024/01/31 02:28:01;;;;;;;19.10;13.40;;;;;;;2.60;65.86;101576.35;106057;1285;22606;-87
2024/01/31 02:30:31;;;;;;;21.20;14.30;;;;;;;2.57;65.86;101573.81;106138;1292;22546;-89
2024/01/31 02:32:58;;;;;;;20.20;13.80;;;;;;;2.56;65.93;101570.63;106109;1292;25690;-89
2024/01/31 02:35:27;;;;;;;18.30;13.90;;;;;;;2.54;66.11;101575.59;107400;1292;22590;-88
2024/01/31 02:37:57;;;;;;;19.00;13.00;;;;;;;2.58;66.16;101575.60;109513;1286;22585;-87
2024/01/31 02:40:25;;;;;;;18.60;13.80;;;;;;;2.61;66.12;101572.22;109775;1280;22581;-86
2024/01/31 02:42:54;;;;;;;16.00;12.10;;;;;;;2.63;66.29;101575.98;110115;1275;22542;-88
2024/01/31 02:45:22;;;;;;;18.10;13.10;;;;;;;2.66;66.20;101573.67;110528;1265;22540;-86
2024/01/31 02:50:44;;;;;;;19.00;13.90;;;;;;;2.67;66.23;101566.42;110512;1274;22942;-85
2024/01/31 02:53:13;;;;;;;19.30;13.60;;;;;;;2.69;66.32;101565.79;110340;1274;22567;-85
2024/01/31 02:55:44;;;;;;;19.20;14.00;;;;;;;2.68;66.35;101563.66;110018;1281;22322;-85
2024/01/31 02:58:16;;;;;;;18.70;13.90;;;;;;;2.63;66.35;101560.65;108837;1281;22551;-84
2024/01/31 03:00:45;;;;;;;20.70;14.10;;;;;;;2.59;66.55;101555.81;108608;1280;22196;-86
2024/01/31 03:03:17;;;;;;;17.70;13.80;;;;;;;2.58;66.59;101556.27;110065;1272;22530;-86
2024/01/31 03:05:46;;;;;;;20.40;13.70;;;;;;;2.56;66.75;101557.27;110005;1278;22430;-86
2024/01/31 03:08:16;;;;;;;16.00;13.30;;;;;;;2.56;66.94;101555.87;109739;1281;22154;-87
2024/01/31 03:10:44;;;;;;;17.70;12.70;;;;;;;2.60;67.01;101557.41;108980;1286;22553;-86
2024/01/31 03:13:14;;;;;;;16.00;12.80;;;;;;;2.62;67.10;101554.35;107092;1280;24172;-87
2024/01/31 03:15:42;;;;;;;17.30;13.90;;;;;;;2.65;67.26;101555.20;106961;1277;24544;-88
2024/01/31 03:18:09;;;;;;;17.80;13.80;;;;;;;2.65;67.23;101553.77;106882;1267;22538;-87
2024/01/31 03:20:37;;;;;;;17.70;13.30;;;;;;;2.65;67.38;101550.67;106777;1285;25264;-89
2024/01/31 03:23:05;;;;;;;18.30;14.30;;;;;;;2.64;67.64;101542.27;106770;1285;22543;-88
2024/01/31 03:25:34;;;;;;;17.10;12.80;;;;;;;2.61;67.72;101546.16;106434;1274;25352;-88
2024/01/31 03:28:02;;;;;;;22.00;14.00;;;;;;;2.64;67.91;101546.11;106502;1285;24376;-84
2024/01/31 03:30:30;;;;;;;19.80;13.60;;;;;;;2.66;67.96;101549.51;106585;1282;25953;-83
2024/01/31 03:32:57;;;;;;;18.30;14.30;;;;;;;2.67;68.13;101544.14;107739;1285;22638;-86
2024/01/31 03:35:24;;;;;;;18.20;14.50;;;;;;;2.68;68.22;101549.41;108406;1278;23186;-85
2024/01/31 03:37:52;;;;;;;17.60;15.10;;;;;;;2.68;68.40;101552.34;108674;1275;22520;-85
2024/01/31 03:40:19;;;;;;;19.80;14.70;;;;;;;2.67;68.52;101549.91;108653;1274;22550;-83
2024/01/31 03:42:48;;;;;;;19.30;13.30;;;;;;;2.69;68.60;101556.06;108473;1274;24205;-84
2024/01/31 03:45:17;;;;;;;18.00;13.20;;;;;;;2.70;68.89;101552.27;108098;1275;22524;-84
2024/01/31 03:47:45;;;;;;;19.60;14.70;;;;;;;2.70;68.91;101552.42;108709;1275;24194;-86
2024/01/31 03:50:13;;;;;;;20.10;14.60;;;;;;;2.71;68.98;101553.15;109076;1273;22525;-84
2024/01/31 03:52:43;;;;;;;19.10;14.10;;;;;;;2.75;68.94;101549.14;107390;1275;25334;-85
2024/01/31 03:55:12;;;;;;;16.30;14.00;;;;;;;2.79;69.01;101544.95;107137;1275;24258;-87
2024/01/31 03:57:40;;;;;;;17.50;14.30;;;;;;;2.81;69.00;101543.48;106796;1268;22533;-88
2024/01/31 04:00:09;;;;;;;16.70;14.10;;;;;;;2.81;69.07;101536.89;106765;1280;24202;-86
2024/01/31 04:02:38;;;;;;;17.70;15.10;;;;;;;2.80;69.18;101535.63;106530;1280;22649;-86
2024/01/31 04:05:10;;;;;;;21.70;13.90;;;;;;;2.78;69.38;101545.83;106797;1280;22583;-86
2024/01/31 04:07:40;;;;;;;20.20;14.80;;;;;;;2.76;69.64;101537.36;106769;1280;22696;-86
2024/01/31 04:10:14;;;;;;;17.30;13.80;;;;;;;2.74;69.81;101542.15;107015;1280;22553;-87
2024/01/31 04:12:45;;;;;;;19.50;15.00;;;;;;;2.73;69.79;101540.74;106597;1280;25736;-89
2024/01/31 04:15:13;;;;;;;18.20;13.80;;;;;;;2.77;69.92;101536.70;106868;1280;22536;-87
2024/01/31 04:17:43;;;;;;;18.30;14.20;;;;;;;2.79;69.99;101545.70;107204;1279;22605;-86
2024/01/31 04:20:11;;;;;;;17.80;13.70;;;;;;;2.81;70.23;101544.86;107116;1278;22533;-88
2024/01/31 04:22:39;;;;;;;16.60;13.90;;;;;;;2.80;70.20;101549.54;106576;1280;22542;-90
2024/01/31 04:25:10;;;;;;;20.70;15.00;;;;;;;2.80;70.23;101549.02;106704;1280;22475;-86
2024/01/31 04:27:40;;;;;;;19.00;15.90;;;;;;;2.80;70.35;101553.21;107146;1280;25290;-87
2024/01/31 04:30:15;;;;;;;17.90;14.00;;;;;;;2.82;70.46;101551.19;107290;1280;25959;-87
2024/01/31 04:32:45;;;;;;;20.60;15.20;;;;;;;2.82;70.50;101550.85;107310;1285;22542;-84
2024/01/31 04:35:14;;;;;;;21.50;15.30;;;;;;;2.83;70.54;101553.17;107374;1283;24221;-84
2024/01/31 04:37:43;;;;;;;16.80;14.50;;;;;;;2.88;70.57;101549.17;107194;1286;22546;-84
2024/01/31 04:40:11;;;;;;;20.60;14.20;;;;;;;2.92;70.50;101548.44;107197;1280;26042;-83
2024/01/31 04:42:38;;;;;;;18.30;14.10;;;;;;;2.90;70.58;101553.27;107428;1280;25240;-82
2024/01/31 04:45:06;;;;;;;19.20;14.10;;;;;;;2.95;70.71;101548.74;107586;1280;25271;-85
2024/01/31 04:47:34;;;;;;;17.10;13.70;;;;;;;3.03;70.65;101554.13;107221;1280;25348;-84
2024/01/31 04:50:02;;;;;;;18.40;14.90;;;;;;;3.10;70.56;101560.48;107608;1274;23931;-85
2024/01/31 04:52:30;;;;;;;21.10;14.70;;;;;;;3.11;70.53;101559.66;108492;1274;25939;-87
2024/01/31 04:55:00;;;;;;;21.50;16.20;;;;;;;3.12;70.68;101552.20;107904;1272;23953;-85
2024/01/31 04:57:28;;;;;;;21.30;14.90;;;;;;;3.12;70.75;101559.70;107005;1278;25275;-85
2024/01/31 04:59:56;;;;;;;17.70;15.10;;;;;;;3.16;70.74;101560.19;106717;1284;22598;-86
2024/01/31 05:02:24;;;;;;;20.50;15.30;;;;;;;3.18;70.50;101563.27;106725;1284;23750;-84
2024/01/31 05:04:54;;;;;;;24.50;15.90;;;;;;;3.20;70.81;101561.60;106953;1284;23903;-87
2024/01/31 05:07:23;;;;;;;17.70;14.60;;;;;;;3.20;70.87;101556.54;106235;1284;23935;-88
2024/01/31 05:09:50;;;;;;;19.80;15.20;;;;;;;3.16;70.96;101566.46;106426;1280;25389;-89
2024/01/31 05:12:19;;;;;;;18.40;15.00;;;;;;;3.13;71.09;101569.14;106309;1284;24228;-87
2024/01/31 05:14:46;;;;;;;17.00;14.70;;;;;;;3.15;71.09;101567.45;106298;1271;23041;-89
2024/01/31 05:17:15;;;;;;;18.40;15.40;;;;;;;3.17;71.23;101569.49;106449;1283;22831;-85
2024/01/31 05:19:43;;;;;;;20.10;16.10;;;;;;;3.19;71.45;101564.69;106311;1285;24579;-86
2024/01/31 05:22:10;;;;;;;19.60;15.80;;;;;;;3.19;71.26;101569.23;106616;1279;22553;-84
2024/01/31 05:24:40;;;;;;;19.70;15.90;;;;;;;3.20;71.28;101567.37;107095;1274;22552;-85
2024/01/31 05:27:10;;;;;;;22.00;16.10;;;;;;;3.23;71.46;101571.45;107453;1275;22498;-86
2024/01/31 05:29:39;;;;;;;18.30;14.10;;;;;;;3.22;71.48;101565.52;107569;1262;24063;-86
2024/01/31 05:32:07;;;;;;;19.80;15.30;;;;;;;3.21;71.73;101562.69;107335;1273;24256;-85
2024/01/31 05:34:35;;;;;;;18.10;14.50;;;;;;;3.20;71.76;101565.95;107781;1267;22615;-85
2024/01/31 05:37:03;;;;;;;19.50;16.10;;;;;;;3.22;71.99;101566.21;108132;1272;22575;-84
2024/01/31 05:39:32;;;;;;;21.90;17.00;;;;;;;3.22;72.09;101563.05;108165;1271;23054;-86
2024/01/31 05:42:03;;;;;;;20.30;15.90;;;;;;;3.21;72.21;101567.04;109479;1270;22572;-83
2024/01/31 05:44:30;;;;;;;18.50;15.70;;;;;;;3.22;72.30;101567.61;108361;1274;22566;-85
2024/01/31 05:46:58;;;;;;;24.50;15.20;;;;;;;3.24;72.33;101569.75;108824;1274;22491;-86
2024/01/31 05:49:28;;;;;;;21.30;16.20;;;;;;;3.26;72.57;101561.97;108833;1274;22630;-87
2024/01/31 05:51:56;;;;;;;19.00;16.40;;;;;;;3.23;72.69;101565.36;110230;1270;22562;-86
2024/01/31 05:54:23;;;;;;;22.30;17.40;;;;;;;3.23;72.70;101565.02;110455;1271;22593;-86
2024/01/31 05:56:51;;;;;;;18.60;14.70;;;;;;;3.23;72.88;101559.27;110437;1274;22473;-86
2024/01/31 05:59:25;;;;;;;22.10;16.40;;;;;;;3.24;73.08;101560.69;110584;1267;22547;-86
2024/01/31 06:01:59;;;;;;;19.20;15.90;;;;;;;3.23;73.20;101562.59;110497;1271;22542;-87
2024/01/31 06:04:29;;;;;;;17.30;14.40;;;;;;;3.25;73.24;101557.94;110503;1263;22582;-90
2024/01/31 06:07:01;;;;;;;22.90;17.10;;;;;;;3.25;73.30;101557.63;110575;1274;22339;-88
2024/01/31 06:09:31;;;;;;;20.80;16.00;;;;;;;3.27;73.26;101561.34;110316;1266;22629;-90
2024/01/31 06:12:01;;;;;;;21.80;15.80;;;;;;;3.29;73.28;101562.98;110580;1275;22249;-90
2024/01/31 06:14:37;;;;;;;18.30;14.90;;;;;;;3.28;73.40;101560.86;110406;1267;22563;-89
2024/01/31 06:17:04;;;;;;;21.20;16.40;;;;;;;3.27;73.44;101569.33;110614;1268;22278;-86
2024/01/31 06:19:33;;;;;;;21.10;16.10;;;;;;;3.26;73.46;101569.81;110588;1274;22586;-89
2024/01/31 06:22:01;;;;;;;23.60;16.20;;;;;;;3.24;73.67;101569.24;110792;1274;22426;-89
2024/01/31 06:24:36;;;;;;;20.30;16.50;;;;;;;3.23;73.62;101573.91;109978;1272;22601;-86
2024/01/31 06:27:03;;;;;;;21.80;16.70;;;;;;;3.23;73.81;101575.11;110363;1277;22355;-88
2024/01/31 06:29:31;;;;;;;22.50;17.60;;;;;;;3.25;73.84;101580.60;109973;1271;23451;-88
2024/01/31 06:32:02;;;;;;;22.10;16.90;;;;;;;3.24;74.15;101581.61;110016;1277;22174;-90
2024/01/31 06:34:30;;;;;;;25.60;16.10;;;;;;;3.25;74.03;101577.44;109769;1279;22682;-89
2024/01/31 06:36:58;;;;;;;25.00;17.30;;;;;;;3.26;74.32;101583.95;109878;1276;22602;-89
2024/01/31 06:39:38;;;;;;;29.70;18.90;;;;;;;3.28;74.45;101581.39;109919;1258;22282;-90
2024/01/31 06:42:08;;;;;;;25.00;17.60;;;;;;;3.31;74.52;101582.03;110440;1266;22568;-93
2024/01/31 06:45:18;;;;;;;22.30;16.60;;;;;;;3.37;74.57;101588.73;107242;1305;544830;-89
2024/01/31 06:47:50;;;;;;;23.60;16.50;;;;;;;3.34;74.63;101585.47;109670;1274;22093;-89
2024/01/31 06:50:18;;;;;;;26.10;18.70;;;;;;;3.32;74.93;101582.98;109168;1290;22798;-89
2024/01/31 06:52:49;;;;;;;23.60;18.00;;;;;;;3.32;75.03;101586.44;109253;1290;22123;-90
2024/01/31 06:55:20;;;;;;;25.40;17.00;;;;;;;3.35;75.16;101588.11;109242;1290;22964;-87
2024/01/31 06:57:57;;;;;;;24.10;17.40;;;;;;;3.39;75.41;101589.13;109022;1288;478831;-86
2024/01/31 07:00:25;;;;;;;26.30;17.00;;;;;;;3.41;75.41;101585.20;109243;1273;25319;-84
2024/01/31 07:02:55;;;;;;;23.00;17.00;;;;;;;3.43;75.61;101587.38;109250;1288;22247;-91
2024/01/31 07:05:46;;;;;;;25.10;17.90;;;;;;;3.46;75.64;101593.79;110330;1276;22534;-90
2024/01/31 07:08:15;;;;;;;27.00;17.50;;;;;;;3.51;75.90;101588.73;109088;1268;25326;-82
2024/01/31 07:10:42;;;;;;;25.90;18.10;;;;;;;3.56;75.81;101588.06;109867;1278;22596;-86
2024/01/31 07:13:10;;;;;;;23.20;17.70;;;;;;;3.64;75.74;101583.30;109891;1275;22539;-88
2024/01/31 07:15:43;;;;;;;22.70;17.40;;;;;;;3.70;75.70;101585.15;109563;1283;22198;-89
2024/01/31 07:18:33;;;;;;;25.00;18.60;;;;;;;3.74;75.68;101584.38;109720;1280;22580;-89
2024/01/31 07:21:01;;;;;;;26.30;18.50;;;;;;;3.74;75.84;101577.56;109825;1282;22648;-90
2024/01/31 07:23:29;;;;;;;24.30;17.90;;;;;;;3.75;75.81;101581.45;109127;1282;22574;-90
2024/01/31 07:25:56;;;;;;;24.10;17.80;;;;;;;3.79;75.83;101577.24;108957;1283;22561;-88
2024/01/31 07:28:25;;;;;;;24.70;19.60;;;;;;;3.81;75.87;101578.38;108466;1288;22608;-88
2024/01/31 07:30:54;;;;;;;33.10;19.60;;;;;;;3.79;76.12;101572.74;108430;1288;22538;-88
2024/01/31 07:33:22;;;;;;;27.00;17.20;;;;;;;3.76;76.22;101576.28;108225;1282;22536;-89
2024/01/31 07:35:50;;;;;;;23.10;18.70;;;;;;;3.78;76.23;101578.79;108851;1283;22608;-89
2024/01/31 07:38:18;;;;;;;25.40;18.30;;;;;;;3.79;76.05;101585.13;108601;1282;22575;-87
2024/01/31 07:40:48;;;;;;;23.90;19.30;;;;;;;3.80;76.11;101587.06;109669;1278;22664;-90
2024/01/31 07:43:17;;;;;;;27.50;17.90;;;;;;;3.79;76.18;101585.64;108612;1282;22534;-89
2024/01/31 07:45:46;;;;;;;26.00;18.10;;;;;;;3.84;76.13;101591.41;108517;1282;23452;-87
2024/01/31 07:48:13;;;;;;;26.60;18.20;;;;;;;3.93;76.10;101594.70;108251;1288;22546;-90
2024/01/31 07:50:41;;;;;;;28.30;19.60;;;;;;;4.02;75.87;101586.98;107580;1288;25448;-89
2024/01/31 07:53:11;;;;;;;21.50;18.50;;;;;;;4.03;75.62;101591.38;107505;1288;25493;-90
2024/01/31 08:01:58;;;;;;;20.70;17.70;;;;;;;4.11;75.57;101593.63;104965;1312;545205;-90
2024/01/31 08:04:28;;;;;;;24.70;18.80;;;;;;;4.12;75.50;101595.90;107502;1286;22992;-89
2024/01/31 08:06:56;;;;;;;22.80;18.10;;;;;;;4.12;75.42;101598.35;107524;1288;25355;-89
2024/01/31 08:09:23;;;;;;;22.30;18.20;;;;;;;4.13;75.46;101606.74;106860;1294;22585;-89
2024/01/31 08:11:52;;;;;;;24.10;17.50;;;;;;;4.14;75.34;101611.33;106505;1294;22562;-88
2024/01/31 08:14:20;;;;;;;20.10;17.00;;;;;;;4.16;75.39;101608.45;109137;1288;279601;-83
2024/01/31 08:16:51;;;;;;;24.00;19.80;;;;;;;4.17;75.45;101608.64;108930;1295;22286;-88
2024/01/31 08:19:19;;;;;;;25.50;20.70;;;;;;;4.15;75.49;101608.56;108949;1295;22252;-88
2024/01/31 08:21:47;;;;;;;22.40;18.30;;;;;;;4.09;75.62;101613.78;108965;1296;22953;-89
2024/01/31 08:24:16;;;;;;;24.20;18.10;;;;;;;4.09;75.64;101608.38;108996;1298;22402;-90
2024/01/31 08:26:45;;;;;;;27.70;20.00;;;;;;;4.13;75.85;101614.77;108949;1298;22273;-90
2024/01/31 08:29:13;;;;;;;25.20;19.80;;;;;;;4.15;75.71;101613.98;108416;1304;22322;-89
2024/01/31 08:31:52;;;;;;;25.50;19.00;;;;;;;4.18;75.81;101617.92;107980;1296;22204;-90
2024/01/31 08:34:22;;;;;;;25.10;19.20;;;;;;;4.20;75.75;101619.23;108741;1289;22157;-90
2024/01/31 08:36:59;;;;;;;24.60;18.40;;;;;;;4.28;75.72;101616.36;109823;1286;22073;-90
2024/01/31 08:39:29;;;;;;;26.50;19.20;;;;;;;4.31;75.69;101620.49;109611;1291;22207;-89
2024/01/31 08:41:57;;;;;;;24.50;18.20;;;;;;;4.33;75.61;101619.52;109675;1291;22172;-89
2024/01/31 08:44:28;;;;;;;23.60;19.20;;;;;;;4.35;75.59;101622.22;109739;1291;22216;-88
2024/01/31 08:46:59;;;;;;;21.70;18.80;;;;;;;4.40;75.52;101625.52;109530;1292;22189;-88
2024/01/31 08:49:45;;;;;;;25.70;18.10;;;;;;;4.45;75.59;101624.45;109681;1289;22150;-87
2024/01/31 08:52:13;;;;;;;23.60;19.00;;;;;;;4.47;75.56;101613.90;109486;1292;22215;-89
2024/01/31 08:54:41;;;;;;;24.30;19.20;;;;;;;4.49;75.46;101626.00;109309;1292;22226;-90
2024/01/31 08:57:11;;;;;;;22.90;19.40;;;;;;;4.50;75.51;101627.44;109534;1286;22163;-89
2024/01/31 08:59:41;;;;;;;25.50;19.50;;;;;;;4.51;75.48;101621.36;109882;1286;22420;-89
2024/01/31 09:02:09;;;;;;;21.30;17.70;;;;;;;4.55;75.62;101622.55;109907;1286;22136;-90
2024/01/31 09:04:41;;;;;;;23.20;17.40;;;;;;;4.63;75.59;101623.36;109156;1293;22232;-88
2024/01/31 09:07:11;;;;;;;21.30;16.70;;;;;;;4.62;75.50;101625.23;108805;1298;22185;-89
2024/01/31 09:09:39;;;;;;;22.10;18.20;;;;;;;4.60;75.51;101624.83;108779;1293;22152;-90
2024/01/31 09:12:08;;;;;;;25.00;18.60;;;;;;;4.60;75.73;101619.95;108504;1296;22224;-89
2024/01/31 09:14:36;;;;;;;24.70;18.50;;;;;;;4.62;75.77;101616.00;108880;1296;22224;-89
2024/01/31 09:17:05;;;;;;;21.50;17.60;;;;;;;4.64;75.88;101622.86;108574;1299;22180;-89
2024/01/31 09:19:32;;;;;;;23.10;18.10;;;;;;;4.67;75.92;101620.70;108666;1292;22905;-89
2024/01/31 09:22:02;;;;;;;25.50;20.00;;;;;;;4.73;75.79;101622.30;108737;1292;22183;-90
2024/01/31 09:24:30;;;;;;;27.20;19.70;;;;;;;4.78;75.86;101621.95;109227;1292;22400;-89
2024/01/31 09:27:01;;;;;;;22.70;18.20;;;;;;;4.88;75.96;101622.13;109214;1292;22183;-90
2024/01/31 09:29:32;;;;;;;23.90;19.20;;;;;;;5.02;75.74;101622.61;108851;1297;22139;-92
2024/01/31 09:32:02;;;;;;;22.90;17.90;;;;;;;5.08;75.48;101619.80;108972;1292;22276;-91
2024/01/31 09:34:30;;;;;;;24.40;19.40;;;;;;;5.12;75.37;101625.54;108815;1292;22215;-88
2024/01/31 09:36:59;;;;;;;23.50;19.40;;;;;;;5.14;75.18;101620.52;109390;1290;23295;-91
2024/01/31 09:39:31;;;;;;;20.80;17.40;;;;;;;5.14;75.33;101616.02;109465;1292;22158;-91
2024/01/31 09:42:00;;;;;;;23.40;18.90;;;;;;;5.19;75.31;101618.11;109571;1292;22946;-90
2024/01/31 09:44:29;;;;;;;23.10;18.60;;;;;;;5.23;75.25;101614.16;109626;1292;22200;-93
2024/01/31 09:46:59;;;;;;;24.90;18.90;;;;;;;5.23;75.27;101614.17;109698;1286;22272;-88
2024/01/31 09:49:28;;;;;;;21.40;18.00;;;;;;;5.26;75.37;101611.30;109825;1286;22176;-91
2024/01/31 09:52:01;;;;;;;22.90;18.20;;;;;;;5.27;75.37;101603.14;109404;1288;22164;-90
2024/01/31 09:54:31;;;;;;;23.00;18.70;;;;;;;5.29;75.39;101600.23;109733;1288;22161;-90
2024/01/31 09:57:01;;;;;;;23.40;19.60;;;;;;;5.32;75.46;101605.75;109645;1287;22185;-90
2024/01/31 09:59:34;;;;;;;23.30;18.90;;;;;;;5.38;75.40;101597.89;109671;1288;22194;-88
2024/01/31 10:02:08;;;;;;;24.20;19.40;;;;;;;5.38;75.40;101601.74;109476;1289;22160;-90
2024/01/31 10:04:37;;;;;;;22.00;18.60;;;;;;;5.43;75.50;101596.66;108734;1298;22227;-89
2024/01/31 10:07:21;;;;;;;23.80;18.60;;;;;;;5.50;75.46;101597.92;108627;1298;22222;-89
2024/01/31 10:09:50;;;;;;;23.60;18.70;;;;;;;5.55;75.35;101590.91;108666;1298;22181;-89
2024/01/31 10:12:20;;;;;;;22.20;17.80;;;;;;;5.69;75.37;101584.50;108754;1298;22232;-89
2024/01/31 10:14:54;;;;;;;19.60;16.20;;;;;;;5.91;75.01;101587.80;108754;1298;22146;-90
2024/01/31 10:17:23;;;;;;;22.60;17.50;;;;;;;6.10;74.59;101585.73;109242;1292;22167;-90
2024/01/31 10:19:52;;;;;;;22.20;18.50;;;;;;;6.24;74.23;101583.52;109370;1286;22214;-88
2024/01/31 10:22:24;;;;;;;24.10;19.70;;;;;;;6.34;73.91;101587.29;109156;1287;22251;-88
2024/01/31 10:24:57;;;;;;;22.70;18.20;;;;;;;6.44;73.83;101583.35;109169;1289;22190;-89
2024/01/31 10:27:26;;;;;;;23.30;18.70;;;;;;;6.52;73.68;101579.02;109297;1290;22185;-88
2024/01/31 10:30:00;;;;;;;21.90;18.10;;;;;;;6.52;73.34;101579.70;109374;1292;22215;-89
2024/01/31 10:32:31;;;;;;;21.60;17.10;;;;;;;6.52;73.25;101571.13;109299;1294;22207;-89
2024/01/31 10:35:03;;;;;;;20.80;17.70;;;;;;;6.48;73.19;101567.69;109262;1276;22160;-90
2024/01/31 10:37:51;;;;;;;23.50;17.30;;;;;;;6.53;73.28;101562.94;109144;1294;22324;-89
2024/01/31 10:40:27;;;;;;;22.60;18.20;;;;;;;6.61;73.30;101559.28;109182;1290;22217;-89
2024/01/31 10:42:57;;;;;;;20.60;17.90;;;;;;;6.66;73.04;101561.54;109079;1292;22363;-90
2024/01/31 10:45:25;;;;;;;23.30;18.10;;;;;;;6.68;72.89;101563.84;109423;1292;22149;-89
2024/01/31 10:47:53;;;;;;;22.20;17.90;;;;;;;6.69;72.98;101557.92;109724;1285;22348;-91
2024/01/31 10:50:22;;;;;;;21.20;17.90;;;;;;;6.69;73.03;101559.50;109852;1283;22201;-89
2024/01/31 10:52:51;;;;;;;21.30;17.80;;;;;;;6.70;72.98;101556.02;109695;1285;22271;-88
2024/01/31 10:55:23;;;;;;;20.80;18.20;;;;;;;6.72;73.10;101554.15;109885;1285;22992;-88
2024/01/31 10:57:54;;;;;;;24.40;17.40;;;;;;;6.74;73.14;101551.73;109900;1285;22189;-87
2024/01/31 11:00:30;;;;;;;23.20;17.60;;;;;;;6.70;73.05;101549.20;109936;1285;22197;-88
2024/01/31 11:02:59;;;;;;;24.00;19.50;;;;;;;6.62;73.30;101550.39;109768;1289;22177;-89
2024/01/31 11:05:27;;;;;;;21.50;17.50;;;;;;;6.60;73.54;101543.31;109657;1292;22141;-88
2024/01/31 11:07:55;;;;;;;22.20;18.70;;;;;;;6.57;73.69;101546.22;109837;1287;22229;-89
2024/01/31 11:10:26;;;;;;;21.90;15.80;;;;;;;6.60;73.87;101549.98;109839;1288;22332;-89
2024/01/31 11:13:05;;;;;;;21.60;16.50;;;;;;;6.62;73.97;101546.03;109874;1288;22169;-89
2024/01/31 11:15:36;;;;;;;24.60;18.20;;;;;;;6.60;74.02;101550.16;109797;1290;22233;-90
2024/01/31 11:18:09;;;;;;;22.20;16.10;;;;;;;6.55;74.25;101544.61;109674;1288;22189;-89
2024/01/31 11:20:56;;;;;;;20.30;16.20;;;;;;;6.55;74.51;101539.02;109762;1285;22121;-90
2024/01/31 11:23:26;;;;;;;20.50;16.60;;;;;;;6.55;74.79;101539.19;109874;1285;22127;-90
2024/01/31 11:26:00;;;;;;;21.80;17.00;;;;;;;6.54;74.96;101537.23;109797;1285;22248;-89
2024/01/31 11:28:28;;;;;;;18.40;15.50;;;;;;;6.53;75.11;101533.17;109892;1285;22164;-90
2024/01/31 11:31:00;;;;;;;18.00;15.30;;;;;;;6.53;75.25;101533.02;109887;1285;22138;-91